sensor_id;sensor_type;location;lat;lon;timestamp;temperature;humidity
24162;DHT22;12318;51.262;7.066;2022-07-10T00:01:37;12.90;99.90
24162;DHT22;12318;51.262;7.066;2022-07-10T00:04:04;12.80;99.90
24162;DHT22;12318;51.262;7.066;2022-07-10T00:06:30;12.70;99.90
24162;DHT22;12318;51.262;7.066;2022-07-10T00:08:55;12.80;99.90
24162;DHT22;12318;51.262;7.066;2022-07-10T00:11:24;12.70;99.90
24162;DHT22;12318;51.262;7.066;2022-07-10T00:13:54;12.70;99.90
24162;DHT22;12318;51.262;7.066;2022-07-10T00:16:19;12.60;99.90
24162;DHT22;12318;51.262;7.066;2022-07-10T00:18:48;12.60;99.90
24162;DHT22;12318;51.262;7.066;2022-07-10T00:21:14;12.50;99.90
24162;DHT22;12318;51.262;7.066;2022-07-10T00:23:40;12.50;99.90
24162;DHT22;12318;51.262;7.066;2022-07-10T00:26:05;12.50;99.90
24162;DHT22;12318;51.262;7.066;2022-07-10T00:28:34;12.60;99.90
24162;DHT22;12318;51.262;7.066;2022-07-10T00:31:00;12.50;99.90
24162;DHT22;12318;51.262;7.066;2022-07-10T00:33:29;12.50;99.90
24162;DHT22;12318;51.262;7.066;2022-07-10T00:35:58;12.40;99.90
24162;DHT22;12318;51.262;7.066;2022-07-10T00:38:24;12.40;99.90
24162;DHT22;12318;51.262;7.066;2022-07-10T00:40:49;12.40;99.90
24162;DHT22;12318;51.262;7.066;2022-07-10T00:43:15;12.50;99.90
24162;DHT22;12318;51.262;7.066;2022-07-10T00:45:41;12.50;99.90
24162;DHT22;12318;51.262;7.066;2022-07-10T00:48:07;12.50;99.90
24162;DHT22;12318;51.262;7.066;2022-07-10T00:50:35;12.50;99.90
24162;DHT22;12318;51.262;7.066;2022-07-10T00:53:01;12.50;99.90
24162;DHT22;12318;51.262;7.066;2022-07-10T00:55:29;12.50;99.90
24162;DHT22;12318;51.262;7.066;2022-07-10T00:57:55;12.60;99.90
24162;DHT22;12318;51.262;7.066;2022-07-10T01:00:21;12.70;99.90
24162;DHT22;12318;51.262;7.066;2022-07-10T01:02:47;12.70;99.90
24162;DHT22;12318;51.262;7.066;2022-07-10T01:05:13;12.80;99.90
24162;DHT22;12318;51.262;7.066;2022-07-10T01:07:39;12.80;99.90
24162;DHT22;12318;51.262;7.066;2022-07-10T01:10:05;12.80;99.90
24162;DHT22;12318;51.262;7.066;2022-07-10T01:12:31;12.80;99.90
24162;DHT22;12318;51.262;7.066;2022-07-10T01:14:58;12.70;99.90
24162;DHT22;12318;51.262;7.066;2022-07-10T01:17:25;12.80;99.90
24162;DHT22;12318;51.262;7.066;2022-07-10T01:19:51;12.80;99.90
24162;DHT22;12318;51.262;7.066;2022-07-10T01:22:17;12.80;99.90
24162;DHT22;12318;51.262;7.066;2022-07-10T01:24:43;12.80;99.90
24162;DHT22;12318;51.262;7.066;2022-07-10T01:27:09;12.80;99.90
24162;DHT22;12318;51.262;7.066;2022-07-10T01:29:35;12.80;99.90
24162;DHT22;12318;51.262;7.066;2022-07-10T01:32:02;12.80;99.90
24162;DHT22;12318;51.262;7.066;2022-07-10T01:34:28;12.80;99.90
24162;DHT22;12318;51.262;7.066;2022-07-10T01:36:54;12.90;99.90
24162;DHT22;12318;51.262;7.066;2022-07-10T01:39:19;12.90;99.90
24162;DHT22;12318;51.262;7.066;2022-07-10T01:41:45;13.00;99.90
24162;DHT22;12318;51.262;7.066;2022-07-10T01:44:11;13.00;99.90
24162;DHT22;12318;51.262;7.066;2022-07-10T01:46:47;13.00;99.90
24162;DHT22;12318;51.262;7.066;2022-07-10T01:49:14;12.90;99.90
24162;DHT22;12318;51.262;7.066;2022-07-10T01:51:40;12.90;99.90
24162;DHT22;12318;51.262;7.066;2022-07-10T01:54:06;12.90;99.90
24162;DHT22;12318;51.262;7.066;2022-07-10T01:56:31;12.90;99.90
24162;DHT22;12318;51.262;7.066;2022-07-10T01:58:58;12.90;99.90
24162;DHT22;12318;51.262;7.066;2022-07-10T02:01:25;12.90;99.90
24162;DHT22;12318;51.262;7.066;2022-07-10T02:03:51;12.90;99.90
24162;DHT22;12318;51.262;7.066;2022-07-10T02:06:35;12.90;99.90
24162;DHT22;12318;51.262;7.066;2022-07-10T02:09:01;12.90;99.90
24162;DHT22;12318;51.262;7.066;2022-07-10T02:11:27;12.90;99.90
24162;DHT22;12318;51.262;7.066;2022-07-10T02:13:53;12.80;99.90
24162;DHT22;12318;51.262;7.066;2022-07-10T02:16:18;12.90;99.90
24162;DHT22;12318;51.262;7.066;2022-07-10T02:18:44;12.90;99.90
24162;DHT22;12318;51.262;7.066;2022-07-10T02:21:10;12.80;99.90
24162;DHT22;12318;51.262;7.066;2022-07-10T02:23:36;12.90;99.90
24162;DHT22;12318;51.262;7.066;2022-07-10T02:26:02;12.80;99.90
24162;DHT22;12318;51.262;7.066;2022-07-10T02:28:28;12.80;99.90
24162;DHT22;12318;51.262;7.066;2022-07-10T02:30:54;12.80;99.90
24162;DHT22;12318;51.262;7.066;2022-07-10T02:33:20;12.70;99.90
24162;DHT22;12318;51.262;7.066;2022-07-10T02:35:46;12.70;99.90
24162;DHT22;12318;51.262;7.066;2022-07-10T02:38:12;12.70;99.90
24162;DHT22;12318;51.262;7.066;2022-07-10T02:40:37;12.60;99.90
24162;DHT22;12318;51.262;7.066;2022-07-10T02:43:03;12.60;99.90
24162;DHT22;12318;51.262;7.066;2022-07-10T02:45:29;12.50;99.90
24162;DHT22;12318;51.262;7.066;2022-07-10T02:47:55;12.50;99.90
24162;DHT22;12318;51.262;7.066;2022-07-10T02:50:20;12.50;99.90
24162;DHT22;12318;51.262;7.066;2022-07-10T02:52:46;12.40;99.90
24162;DHT22;12318;51.262;7.066;2022-07-10T02:55:12;12.30;99.90
24162;DHT22;12318;51.262;7.066;2022-07-10T02:57:38;12.30;99.90
24162;DHT22;12318;51.262;7.066;2022-07-10T03:00:04;12.30;99.90
24162;DHT22;12318;51.262;7.066;2022-07-10T03:02:30;12.30;99.90
24162;DHT22;12318;51.262;7.066;2022-07-10T03:04:56;12.30;99.90
24162;DHT22;12318;51.262;7.066;2022-07-10T03:07:21;12.20;99.90
24162;DHT22;12318;51.262;7.066;2022-07-10T03:09:47;12.20;99.90
24162;DHT22;12318;51.262;7.066;2022-07-10T03:12:13;12.20;99.90
24162;DHT22;12318;51.262;7.066;2022-07-10T03:14:39;12.10;99.90
24162;DHT22;12318;51.262;7.066;2022-07-10T03:17:04;12.10;99.90
24162;DHT22;12318;51.262;7.066;2022-07-10T03:19:30;12.10;99.90
24162;DHT22;12318;51.262;7.066;2022-07-10T03:21:56;12.10;99.90
24162;DHT22;12318;51.262;7.066;2022-07-10T03:24:22;12.10;99.90
24162;DHT22;12318;51.262;7.066;2022-07-10T03:26:47;12.20;99.90
24162;DHT22;12318;51.262;7.066;2022-07-10T03:29:13;12.20;99.90
24162;DHT22;12318;51.262;7.066;2022-07-10T03:31:39;12.30;99.90
24162;DHT22;12318;51.262;7.066;2022-07-10T03:34:05;12.30;99.90
24162;DHT22;12318;51.262;7.066;2022-07-10T03:36:30;12.30;99.90
24162;DHT22;12318;51.262;7.066;2022-07-10T03:38:56;12.40;99.90
24162;DHT22;12318;51.262;7.066;2022-07-10T03:41:22;12.40;99.90
24162;DHT22;12318;51.262;7.066;2022-07-10T03:43:48;12.40;99.90
24162;DHT22;12318;51.262;7.066;2022-07-10T03:46:13;12.30;99.90
24162;DHT22;12318;51.262;7.066;2022-07-10T03:48:39;12.30;99.90
24162;DHT22;12318;51.262;7.066;2022-07-10T03:51:05;12.30;99.90
24162;DHT22;12318;51.262;7.066;2022-07-10T03:53:31;12.30;99.90
24162;DHT22;12318;51.262;7.066;2022-07-10T03:55:56;12.40;99.90
24162;DHT22;12318;51.262;7.066;2022-07-10T03:58:22;12.40;99.90
24162;DHT22;12318;51.262;7.066;2022-07-10T04:00:48;12.30;99.90
24162;DHT22;12318;51.262;7.066;2022-07-10T04:03:14;12.30;99.90
24162;DHT22;12318;51.262;7.066;2022-07-10T04:05:39;12.20;99.90
24162;DHT22;12318;51.262;7.066;2022-07-10T04:08:05;12.20;99.90
24162;DHT22;12318;51.262;7.066;2022-07-10T04:10:32;12.20;99.90
24162;DHT22;12318;51.262;7.066;2022-07-10T04:12:58;12.10;99.90
24162;DHT22;12318;51.262;7.066;2022-07-10T04:15:24;12.10;99.90
24162;DHT22;12318;51.262;7.066;2022-07-10T04:17:50;12.20;99.90
24162;DHT22;12318;51.262;7.066;2022-07-10T04:20:17;12.10;99.90
24162;DHT22;12318;51.262;7.066;2022-07-10T04:22:43;12.20;99.90
24162;DHT22;12318;51.262;7.066;2022-07-10T04:25:09;12.20;99.90
24162;DHT22;12318;51.262;7.066;2022-07-10T04:27:36;12.20;99.90
24162;DHT22;12318;51.262;7.066;2022-07-10T04:30:02;12.20;99.90
24162;DHT22;12318;51.262;7.066;2022-07-10T04:32:28;12.20;99.90
24162;DHT22;12318;51.262;7.066;2022-07-10T04:34:55;12.10;99.90
24162;DHT22;12318;51.262;7.066;2022-07-10T04:37:21;12.10;99.90
24162;DHT22;12318;51.262;7.066;2022-07-10T04:39:46;12.10;99.90
24162;DHT22;12318;51.262;7.066;2022-07-10T04:42:12;12.20;99.90
24162;DHT22;12318;51.262;7.066;2022-07-10T04:44:38;12.10;99.90
24162;DHT22;12318;51.262;7.066;2022-07-10T04:47:04;12.20;99.90
24162;DHT22;12318;51.262;7.066;2022-07-10T04:49:31;12.30;99.90
24162;DHT22;12318;51.262;7.066;2022-07-10T04:51:57;12.40;99.90
24162;DHT22;12318;51.262;7.066;2022-07-10T04:54:23;12.60;99.90
24162;DHT22;12318;51.262;7.066;2022-07-10T04:56:49;12.60;99.90
24162;DHT22;12318;51.262;7.066;2022-07-10T04:59:14;12.60;99.90
24162;DHT22;12318;51.262;7.066;2022-07-10T05:01:40;12.70;99.90
24162;DHT22;12318;51.262;7.066;2022-07-10T05:04:06;12.80;99.90
24162;DHT22;12318;51.262;7.066;2022-07-10T05:06:32;12.90;99.90
24162;DHT22;12318;51.262;7.066;2022-07-10T05:08:58;13.00;99.90
24162;DHT22;12318;51.262;7.066;2022-07-10T05:11:25;13.20;99.90
24162;DHT22;12318;51.262;7.066;2022-07-10T05:13:51;13.10;99.90
24162;DHT22;12318;51.262;7.066;2022-07-10T05:16:17;13.20;99.90
24162;DHT22;12318;51.262;7.066;2022-07-10T05:18:43;13.50;99.90
24162;DHT22;12318;51.262;7.066;2022-07-10T05:21:10;13.80;99.90
24162;DHT22;12318;51.262;7.066;2022-07-10T05:23:37;13.80;99.90
24162;DHT22;12318;51.262;7.066;2022-07-10T05:26:04;13.70;99.90
24162;DHT22;12318;51.262;7.066;2022-07-10T05:28:30;13.80;99.90
24162;DHT22;12318;51.262;7.066;2022-07-10T05:30:55;13.80;99.90
24162;DHT22;12318;51.262;7.066;2022-07-10T05:33:21;13.80;99.90
24162;DHT22;12318;51.262;7.066;2022-07-10T05:35:47;13.80;99.90
24162;DHT22;12318;51.262;7.066;2022-07-10T05:38:13;13.60;99.90
24162;DHT22;12318;51.262;7.066;2022-07-10T05:40:39;13.50;99.90
24162;DHT22;12318;51.262;7.066;2022-07-10T05:43:05;13.40;99.90
24162;DHT22;12318;51.262;7.066;2022-07-10T05:45:31;13.40;99.90
24162;DHT22;12318;51.262;7.066;2022-07-10T05:47:57;13.40;99.90
24162;DHT22;12318;51.262;7.066;2022-07-10T05:50:22;13.40;99.90
24162;DHT22;12318;51.262;7.066;2022-07-10T05:52:48;13.40;99.90
24162;DHT22;12318;51.262;7.066;2022-07-10T05:55:15;13.30;99.90
24162;DHT22;12318;51.262;7.066;2022-07-10T05:57:41;13.30;99.90
24162;DHT22;12318;51.262;7.066;2022-07-10T06:00:08;13.40;99.90
24162;DHT22;12318;51.262;7.066;2022-07-10T06:02:34;13.50;99.90
24162;DHT22;12318;51.262;7.066;2022-07-10T06:05:00;13.60;99.90
24162;DHT22;12318;51.262;7.066;2022-07-10T06:07:26;13.60;99.90
24162;DHT22;12318;51.262;7.066;2022-07-10T06:09:53;13.70;99.90
24162;DHT22;12318;51.262;7.066;2022-07-10T06:12:18;13.80;99.90
24162;DHT22;12318;51.262;7.066;2022-07-10T06:14:44;13.80;99.90
24162;DHT22;12318;51.262;7.066;2022-07-10T06:17:10;13.80;99.90
24162;DHT22;12318;51.262;7.066;2022-07-10T06:19:36;13.80;99.90
24162;DHT22;12318;51.262;7.066;2022-07-10T06:22:02;13.90;99.90
24162;DHT22;12318;51.262;7.066;2022-07-10T06:24:46;14.00;99.90
24162;DHT22;12318;51.262;7.066;2022-07-10T06:27:12;13.90;99.90
24162;DHT22;12318;51.262;7.066;2022-07-10T06:29:38;13.80;99.90
24162;DHT22;12318;51.262;7.066;2022-07-10T06:32:04;13.70;99.90
24162;DHT22;12318;51.262;7.066;2022-07-10T06:34:30;13.80;99.90
24162;DHT22;12318;51.262;7.066;2022-07-10T06:36:56;13.90;99.90
24162;DHT22;12318;51.262;7.066;2022-07-10T06:39:22;14.00;99.90
24162;DHT22;12318;51.262;7.066;2022-07-10T06:41:48;14.10;99.90
24162;DHT22;12318;51.262;7.066;2022-07-10T06:44:14;14.10;99.90
24162;DHT22;12318;51.262;7.066;2022-07-10T06:46:39;14.10;99.90
24162;DHT22;12318;51.262;7.066;2022-07-10T06:49:05;14.00;99.90
24162;DHT22;12318;51.262;7.066;2022-07-10T06:51:32;14.00;99.90
24162;DHT22;12318;51.262;7.066;2022-07-10T06:53:57;13.90;99.90
24162;DHT22;12318;51.262;7.066;2022-07-10T06:56:23;13.90;99.90
24162;DHT22;12318;51.262;7.066;2022-07-10T06:58:49;13.90;99.90
24162;DHT22;12318;51.262;7.066;2022-07-10T07:01:15;13.90;99.90
24162;DHT22;12318;51.262;7.066;2022-07-10T07:03:42;14.00;99.90
24162;DHT22;12318;51.262;7.066;2022-07-10T07:06:07;14.00;99.90
24162;DHT22;12318;51.262;7.066;2022-07-10T07:08:35;14.00;99.90
24162;DHT22;12318;51.262;7.066;2022-07-10T07:11:02;14.00;99.90
24162;DHT22;12318;51.262;7.066;2022-07-10T07:13:28;14.00;99.90
24162;DHT22;12318;51.262;7.066;2022-07-10T07:15:54;14.10;99.90
24162;DHT22;12318;51.262;7.066;2022-07-10T07:18:26;14.20;99.90
24162;DHT22;12318;51.262;7.066;2022-07-10T07:21:03;14.00;99.90
24162;DHT22;12318;51.262;7.066;2022-07-10T07:23:47;14.00;99.90
24162;DHT22;12318;51.262;7.066;2022-07-10T07:26:13;14.10;99.90
24162;DHT22;12318;51.262;7.066;2022-07-10T07:28:39;14.20;99.90
24162;DHT22;12318;51.262;7.066;2022-07-10T07:31:04;14.30;99.90
24162;DHT22;12318;51.262;7.066;2022-07-10T07:33:30;14.40;99.90
24162;DHT22;12318;51.262;7.066;2022-07-10T07:35:56;14.40;99.90
24162;DHT22;12318;51.262;7.066;2022-07-10T07:38:22;14.40;99.90
24162;DHT22;12318;51.262;7.066;2022-07-10T07:40:48;14.50;99.90
24162;DHT22;12318;51.262;7.066;2022-07-10T07:43:14;14.50;99.90
24162;DHT22;12318;51.262;7.066;2022-07-10T07:45:39;14.60;99.90
24162;DHT22;12318;51.262;7.066;2022-07-10T07:48:05;14.50;99.90
24162;DHT22;12318;51.262;7.066;2022-07-10T07:50:33;14.70;99.90
24162;DHT22;12318;51.262;7.066;2022-07-10T07:53:01;14.70;99.90
24162;DHT22;12318;51.262;7.066;2022-07-10T07:55:27;14.80;99.90
24162;DHT22;12318;51.262;7.066;2022-07-10T07:57:55;14.60;99.90
24162;DHT22;12318;51.262;7.066;2022-07-10T08:00:23;14.50;99.90
24162;DHT22;12318;51.262;7.066;2022-07-10T08:02:50;14.30;99.90
24162;DHT22;12318;51.262;7.066;2022-07-10T08:05:16;14.20;99.90
24162;DHT22;12318;51.262;7.066;2022-07-10T08:07:44;14.10;99.90
24162;DHT22;12318;51.262;7.066;2022-07-10T08:10:16;14.10;99.90
24162;DHT22;12318;51.262;7.066;2022-07-10T08:12:43;14.10;99.90
24162;DHT22;12318;51.262;7.066;2022-07-10T08:15:14;14.20;99.90
24162;DHT22;12318;51.262;7.066;2022-07-10T08:17:39;14.30;99.90
24162;DHT22;12318;51.262;7.066;2022-07-10T08:20:07;14.00;99.90
24162;DHT22;12318;51.262;7.066;2022-07-10T08:22:34;14.00;99.90
24162;DHT22;12318;51.262;7.066;2022-07-10T08:25:01;14.00;99.90
24162;DHT22;12318;51.262;7.066;2022-07-10T08:27:27;13.80;99.90
24162;DHT22;12318;51.262;7.066;2022-07-10T08:29:53;13.60;99.90
24162;DHT22;12318;51.262;7.066;2022-07-10T08:32:19;13.70;99.90
24162;DHT22;12318;51.262;7.066;2022-07-10T08:34:45;13.60;99.90
24162;DHT22;12318;51.262;7.066;2022-07-10T08:37:10;13.50;99.90
24162;DHT22;12318;51.262;7.066;2022-07-10T08:39:36;13.50;99.90
24162;DHT22;12318;51.262;7.066;2022-07-10T08:42:04;13.40;99.90
24162;DHT22;12318;51.262;7.066;2022-07-10T08:44:30;13.40;99.90
24162;DHT22;12318;51.262;7.066;2022-07-10T08:46:56;13.40;99.90
24162;DHT22;12318;51.262;7.066;2022-07-10T08:49:30;13.60;99.90
24162;DHT22;12318;51.262;7.066;2022-07-10T08:52:13;14.00;99.90
24162;DHT22;12318;51.262;7.066;2022-07-10T08:54:46;14.10;99.90
24162;DHT22;12318;51.262;7.066;2022-07-10T08:57:12;14.20;99.90
24162;DHT22;12318;51.262;7.066;2022-07-10T08:59:41;14.10;99.90
24162;DHT22;12318;51.262;7.066;2022-07-10T09:02:06;14.10;99.90
24162;DHT22;12318;51.262;7.066;2022-07-10T09:04:32;14.10;99.90
24162;DHT22;12318;51.262;7.066;2022-07-10T09:06:58;14.30;99.90
24162;DHT22;12318;51.262;7.066;2022-07-10T09:09:24;14.70;99.90
24162;DHT22;12318;51.262;7.066;2022-07-10T09:11:57;14.50;99.90
24162;DHT22;12318;51.262;7.066;2022-07-10T09:14:26;14.30;99.90
24162;DHT22;12318;51.262;7.066;2022-07-10T09:16:53;14.40;99.90
24162;DHT22;12318;51.262;7.066;2022-07-10T09:19:23;14.30;99.90
24162;DHT22;12318;51.262;7.066;2022-07-10T09:21:54;14.00;99.90
24162;DHT22;12318;51.262;7.066;2022-07-10T09:24:21;13.90;99.90
24162;DHT22;12318;51.262;7.066;2022-07-10T09:29:20;14.00;99.90
24162;DHT22;12318;51.262;7.066;2022-07-10T09:32:04;14.00;99.90
24162;DHT22;12318;51.262;7.066;2022-07-10T09:39:56;14.40;99.90
24162;DHT22;12318;51.262;7.066;2022-07-10T09:44:53;14.50;99.90
24162;DHT22;12318;51.262;7.066;2022-07-10T09:47:42;14.70;99.90
24162;DHT22;12318;51.262;7.066;2022-07-10T09:52:57;15.10;99.90
24162;DHT22;12318;51.262;7.066;2022-07-10T09:55:26;15.10;99.90
24162;DHT22;12318;51.262;7.066;2022-07-10T09:58:00;15.10;99.90
24162;DHT22;12318;51.262;7.066;2022-07-10T10:00:28;15.00;99.90
24162;DHT22;12318;51.262;7.066;2022-07-10T10:02:59;14.80;99.90
24162;DHT22;12318;51.262;7.066;2022-07-10T10:10:57;14.80;99.90
24162;DHT22;12318;51.262;7.066;2022-07-10T10:13:25;15.00;99.90
24162;DHT22;12318;51.262;7.066;2022-07-10T10:15:54;15.30;99.90
24162;DHT22;12318;51.262;7.066;2022-07-10T10:18:27;15.40;99.90
24162;DHT22;12318;51.262;7.066;2022-07-10T10:20:54;15.40;99.90
24162;DHT22;12318;51.262;7.066;2022-07-10T10:23:22;15.40;99.90
24162;DHT22;12318;51.262;7.066;2022-07-10T10:25:53;15.40;99.90
24162;DHT22;12318;51.262;7.066;2022-07-10T10:28:25;15.40;99.90
24162;DHT22;12318;51.262;7.066;2022-07-10T10:30:59;15.50;99.90
24162;DHT22;12318;51.262;7.066;2022-07-10T10:36:05;15.70;99.90
24162;DHT22;12318;51.262;7.066;2022-07-10T10:41:41;15.60;99.90
24162;DHT22;12318;51.262;7.066;2022-07-10T10:49:17;15.60;99.90
24162;DHT22;12318;51.262;7.066;2022-07-10T10:52:09;15.50;99.90
24162;DHT22;12318;51.262;7.066;2022-07-10T10:54:59;15.40;99.90
24162;DHT22;12318;51.262;7.066;2022-07-10T11:00:02;15.50;99.90
24162;DHT22;12318;51.262;7.066;2022-07-10T11:02:34;15.50;99.90
24162;DHT22;12318;51.262;7.066;2022-07-10T11:07:59;15.40;99.90
24162;DHT22;12318;51.262;7.066;2022-07-10T11:13:14;15.80;99.90
24162;DHT22;12318;51.262;7.066;2022-07-10T11:15:43;15.70;99.90
24162;DHT22;12318;51.262;7.066;2022-07-10T11:18:10;15.60;99.90
24162;DHT22;12318;51.262;7.066;2022-07-10T11:20:48;15.50;99.90
24162;DHT22;12318;51.262;7.066;2022-07-10T11:23:43;15.60;99.90
24162;DHT22;12318;51.262;7.066;2022-07-10T11:26:21;15.70;99.90
24162;DHT22;12318;51.262;7.066;2022-07-10T11:29:03;15.80;99.90
24162;DHT22;12318;51.262;7.066;2022-07-10T11:31:30;15.80;99.90
24162;DHT22;12318;51.262;7.066;2022-07-10T11:34:00;15.90;99.90
24162;DHT22;12318;51.262;7.066;2022-07-10T11:36:27;15.90;99.90
24162;DHT22;12318;51.262;7.066;2022-07-10T11:39:04;15.70;99.90
24162;DHT22;12318;51.262;7.066;2022-07-10T11:41:30;16.10;99.90
24162;DHT22;12318;51.262;7.066;2022-07-10T11:44:00;15.90;99.90
24162;DHT22;12318;51.262;7.066;2022-07-10T11:46:29;15.80;99.90
24162;DHT22;12318;51.262;7.066;2022-07-10T11:48:55;15.90;99.90
24162;DHT22;12318;51.262;7.066;2022-07-10T11:51:28;15.80;99.90
24162;DHT22;12318;51.262;7.066;2022-07-10T11:54:05;16.00;99.90
24162;DHT22;12318;51.262;7.066;2022-07-10T11:56:33;15.80;99.90
24162;DHT22;12318;51.262;7.066;2022-07-10T11:59:08;15.60;99.90
24162;DHT22;12318;51.262;7.066;2022-07-10T12:02:00;15.80;99.90
24162;DHT22;12318;51.262;7.066;2022-07-10T12:04:29;15.60;99.90
24162;DHT22;12318;51.262;7.066;2022-07-10T12:06:55;15.40;99.90
24162;DHT22;12318;51.262;7.066;2022-07-10T12:09:22;15.50;99.90
24162;DHT22;12318;51.262;7.066;2022-07-10T12:12:05;15.40;99.90
24162;DHT22;12318;51.262;7.066;2022-07-10T12:14:32;15.40;99.90
24162;DHT22;12318;51.262;7.066;2022-07-10T12:16:59;15.40;99.90
24162;DHT22;12318;51.262;7.066;2022-07-10T12:19:29;15.30;99.90
24162;DHT22;12318;51.262;7.066;2022-07-10T12:21:57;15.40;99.90
24162;DHT22;12318;51.262;7.066;2022-07-10T12:24:25;15.50;99.90
24162;DHT22;12318;51.262;7.066;2022-07-10T12:26:52;15.60;99.90
24162;DHT22;12318;51.262;7.066;2022-07-10T12:31:48;15.80;99.90
24162;DHT22;12318;51.262;7.066;2022-07-10T12:34:36;16.00;99.90
24162;DHT22;12318;51.262;7.066;2022-07-10T12:37:10;16.10;99.90
24162;DHT22;12318;51.262;7.066;2022-07-10T12:39:37;16.00;99.90
24162;DHT22;12318;51.262;7.066;2022-07-10T12:42:06;15.60;99.90
24162;DHT22;12318;51.262;7.066;2022-07-10T12:44:44;15.50;99.90
24162;DHT22;12318;51.262;7.066;2022-07-10T12:47:18;15.50;99.90
24162;DHT22;12318;51.262;7.066;2022-07-10T12:52:32;15.20;99.90
24162;DHT22;12318;51.262;7.066;2022-07-10T12:55:13;15.30;99.90
24162;DHT22;12318;51.262;7.066;2022-07-10T13:00:19;15.60;99.90
24162;DHT22;12318;51.262;7.066;2022-07-10T13:02:47;15.60;99.90
24162;DHT22;12318;51.262;7.066;2022-07-10T13:05:38;15.50;99.90
24162;DHT22;12318;51.262;7.066;2022-07-10T13:08:16;15.50;99.90
24162;DHT22;12318;51.262;7.066;2022-07-10T13:10:47;15.60;99.90
24162;DHT22;12318;51.262;7.066;2022-07-10T13:13:13;15.50;99.90
24162;DHT22;12318;51.262;7.066;2022-07-10T13:15:40;15.60;99.90
24162;DHT22;12318;51.262;7.066;2022-07-10T13:18:17;15.80;99.90
24162;DHT22;12318;51.262;7.066;2022-07-10T13:20:46;15.70;99.90
24162;DHT22;12318;51.262;7.066;2022-07-10T13:23:13;15.50;99.90
24162;DHT22;12318;51.262;7.066;2022-07-10T13:25:49;15.50;99.90
24162;DHT22;12318;51.262;7.066;2022-07-10T13:28:15;15.60;99.90
24162;DHT22;12318;51.262;7.066;2022-07-10T13:30:42;15.80;99.90
24162;DHT22;12318;51.262;7.066;2022-07-10T13:33:08;15.90;99.90
24162;DHT22;12318;51.262;7.066;2022-07-10T13:35:34;16.10;99.90
24162;DHT22;12318;51.262;7.066;2022-07-10T13:38:01;16.40;99.90
24162;DHT22;12318;51.262;7.066;2022-07-10T13:40:29;16.10;99.90
24162;DHT22;12318;51.262;7.066;2022-07-10T13:42:56;16.50;99.90
24162;DHT22;12318;51.262;7.066;2022-07-10T13:45:23;16.60;99.90
24162;DHT22;12318;51.262;7.066;2022-07-10T13:47:50;16.80;99.90
24162;DHT22;12318;51.262;7.066;2022-07-10T13:50:19;16.70;99.90
24162;DHT22;12318;51.262;7.066;2022-07-10T13:52:45;16.80;99.90
24162;DHT22;12318;51.262;7.066;2022-07-10T13:55:12;16.80;99.90
24162;DHT22;12318;51.262;7.066;2022-07-10T13:57:39;16.80;99.90
24162;DHT22;12318;51.262;7.066;2022-07-10T14:00:08;16.80;99.90
24162;DHT22;12318;51.262;7.066;2022-07-10T14:02:33;16.90;99.90
24162;DHT22;12318;51.262;7.066;2022-07-10T14:05:00;16.90;99.90
24162;DHT22;12318;51.262;7.066;2022-07-10T14:07:25;16.80;99.90
24162;DHT22;12318;51.262;7.066;2022-07-10T14:09:52;16.80;99.90
24162;DHT22;12318;51.262;7.066;2022-07-10T14:12:17;16.80;99.90
24162;DHT22;12318;51.262;7.066;2022-07-10T14:14:44;16.80;99.90
24162;DHT22;12318;51.262;7.066;2022-07-10T14:17:10;16.70;99.90
24162;DHT22;12318;51.262;7.066;2022-07-10T14:19:37;16.60;99.90
24162;DHT22;12318;51.262;7.066;2022-07-10T14:22:03;16.60;99.90
24162;DHT22;12318;51.262;7.066;2022-07-10T14:24:31;16.50;99.90
24162;DHT22;12318;51.262;7.066;2022-07-10T14:26:57;16.60;99.90
24162;DHT22;12318;51.262;7.066;2022-07-10T14:29:23;16.60;99.90
24162;DHT22;12318;51.262;7.066;2022-07-10T14:31:48;16.80;99.90
24162;DHT22;12318;51.262;7.066;2022-07-10T14:34:24;16.80;99.90
24162;DHT22;12318;51.262;7.066;2022-07-10T14:36:51;16.90;99.90
24162;DHT22;12318;51.262;7.066;2022-07-10T14:39:17;17.10;99.90
24162;DHT22;12318;51.262;7.066;2022-07-10T14:41:42;17.10;99.90
24162;DHT22;12318;51.262;7.066;2022-07-10T14:44:09;17.20;99.90
24162;DHT22;12318;51.262;7.066;2022-07-10T14:46:35;17.20;99.90
24162;DHT22;12318;51.262;7.066;2022-07-10T14:49:01;17.00;99.90
24162;DHT22;12318;51.262;7.066;2022-07-10T14:51:36;16.90;99.90
24162;DHT22;12318;51.262;7.066;2022-07-10T14:54:02;16.90;99.90
24162;DHT22;12318;51.262;7.066;2022-07-10T14:56:28;16.80;99.90
24162;DHT22;12318;51.262;7.066;2022-07-10T14:58:54;16.80;99.90
24162;DHT22;12318;51.262;7.066;2022-07-10T15:01:20;16.90;99.90
24162;DHT22;12318;51.262;7.066;2022-07-10T15:03:54;16.90;99.90
24162;DHT22;12318;51.262;7.066;2022-07-10T15:06:21;16.90;99.90
24162;DHT22;12318;51.262;7.066;2022-07-10T15:08:46;17.00;99.90
24162;DHT22;12318;51.262;7.066;2022-07-10T15:11:16;17.20;99.90
24162;DHT22;12318;51.262;7.066;2022-07-10T15:13:45;17.20;99.90
24162;DHT22;12318;51.262;7.066;2022-07-10T15:16:11;17.40;99.90
24162;DHT22;12318;51.262;7.066;2022-07-10T15:18:37;17.60;99.90
24162;DHT22;12318;51.262;7.066;2022-07-10T15:21:03;17.50;99.90
24162;DHT22;12318;51.262;7.066;2022-07-10T15:23:29;17.70;99.90
24162;DHT22;12318;51.262;7.066;2022-07-10T15:25:55;17.70;99.90
24162;DHT22;12318;51.262;7.066;2022-07-10T15:28:20;17.90;99.90
24162;DHT22;12318;51.262;7.066;2022-07-10T15:30:46;17.90;99.90
24162;DHT22;12318;51.262;7.066;2022-07-10T15:33:12;18.00;99.90
24162;DHT22;12318;51.262;7.066;2022-07-10T15:35:37;17.80;99.90
24162;DHT22;12318;51.262;7.066;2022-07-10T15:38:03;17.80;99.90
24162;DHT22;12318;51.262;7.066;2022-07-10T15:40:30;17.70;99.90
24162;DHT22;12318;51.262;7.066;2022-07-10T15:42:56;17.60;99.90
24162;DHT22;12318;51.262;7.066;2022-07-10T15:45:23;17.60;99.90
24162;DHT22;12318;51.262;7.066;2022-07-10T15:47:49;17.60;99.90
24162;DHT22;12318;51.262;7.066;2022-07-10T15:50:15;17.70;99.90
24162;DHT22;12318;51.262;7.066;2022-07-10T15:52:41;18.10;99.90
24162;DHT22;12318;51.262;7.066;2022-07-10T15:55:07;18.40;99.90
24162;DHT22;12318;51.262;7.066;2022-07-10T15:57:33;18.50;99.90
24162;DHT22;12318;51.262;7.066;2022-07-10T15:59:59;18.80;99.90
24162;DHT22;12318;51.262;7.066;2022-07-10T16:02:25;18.90;99.90
24162;DHT22;12318;51.262;7.066;2022-07-10T16:04:57;18.80;99.90
24162;DHT22;12318;51.262;7.066;2022-07-10T16:07:22;18.60;99.90
24162;DHT22;12318;51.262;7.066;2022-07-10T16:09:49;18.60;99.90
24162;DHT22;12318;51.262;7.066;2022-07-10T16:12:15;18.20;99.90
24162;DHT22;12318;51.262;7.066;2022-07-10T16:14:41;18.00;99.90
24162;DHT22;12318;51.262;7.066;2022-07-10T16:17:07;17.90;99.90
24162;DHT22;12318;51.262;7.066;2022-07-10T16:19:33;18.10;99.90